^ Back to Top

Niederschlagsradar DWD

© Deutscher Wetterdienst, Offenbach (DWD)

Aviation WX

[source: ADDS]
METAR
EDDN 232050Z 00000KT CAVOK 18/14 Q1026 =
TAF
TAF EDDN 231700Z 2318/2418 VRB03KT CAVOK BECMG 2406/2408 11007KT =
SR / SS: 04:20 / 18:15 UTC (ETHR 2016-08-23)

Statistiken

Besucher
40
Beiträge
35
Weblinks
10
Anzahl Beitragshäufigkeit
55581